sensor_id;sensor_type;location;lat;lon;timestamp;P1;durP1;ratioP1;P2;durP2;ratioP2
64029;SDS011;50277;52.064;4.492;2023-05-20T00:00:05;13.27;;;3.92;;
64029;SDS011;50277;52.064;4.492;2023-05-20T00:02:31;8.25;;;3.40;;
64029;SDS011;50277;52.064;4.492;2023-05-20T00:04:56;10.38;;;3.67;;
64029;SDS011;50277;52.064;4.492;2023-05-20T00:07:22;12.15;;;3.80;;
64029;SDS011;50277;52.064;4.492;2023-05-20T00:09:47;9.35;;;3.50;;
64029;SDS011;50277;52.064;4.492;2023-05-20T00:12:12;9.27;;;3.55;;
64029;SDS011;50277;52.064;4.492;2023-05-20T00:14:38;8.13;;;3.65;;
64029;SDS011;50277;52.064;4.492;2023-05-20T00:17:03;16.10;;;3.83;;
64029;SDS011;50277;52.064;4.492;2023-05-20T00:19:28;12.30;;;4.03;;
64029;SDS011;50277;52.064;4.492;2023-05-20T00:21:54;10.55;;;3.83;;
64029;SDS011;50277;52.064;4.492;2023-05-20T00:24:21;8.55;;;3.45;;
64029;SDS011;50277;52.064;4.492;2023-05-20T00:26:47;13.25;;;3.72;;
64029;SDS011;50277;52.064;4.492;2023-05-20T00:29:12;8.70;;;4.10;;
64029;SDS011;50277;52.064;4.492;2023-05-20T00:31:38;14.32;;;4.13;;
64029;SDS011;50277;52.064;4.492;2023-05-20T00:34:03;7.10;;;3.67;;
64029;SDS011;50277;52.064;4.492;2023-05-20T00:36:28;7.50;;;3.42;;
64029;SDS011;50277;52.064;4.492;2023-05-20T00:38:54;9.60;;;3.88;;
64029;SDS011;50277;52.064;4.492;2023-05-20T00:41:19;10.05;;;4.18;;
64029;SDS011;50277;52.064;4.492;2023-05-20T00:43:45;9.43;;;3.60;;
64029;SDS011;50277;52.064;4.492;2023-05-20T00:46:11;7.47;;;3.40;;
64029;SDS011;50277;52.064;4.492;2023-05-20T00:48:39;7.20;;;3.70;;
64029;SDS011;50277;52.064;4.492;2023-05-20T00:51:05;11.23;;;3.78;;
64029;SDS011;50277;52.064;4.492;2023-05-20T00:53:31;6.75;;;3.58;;
64029;SDS011;50277;52.064;4.492;2023-05-20T00:55:58;9.63;;;4.47;;
64029;SDS011;50277;52.064;4.492;2023-05-20T00:58:23;11.38;;;3.75;;
64029;SDS011;50277;52.064;4.492;2023-05-20T01:00:48;9.27;;;4.13;;
64029;SDS011;50277;52.064;4.492;2023-05-20T01:03:14;12.48;;;4.13;;
64029;SDS011;50277;52.064;4.492;2023-05-20T01:05:39;8.23;;;4.18;;
64029;SDS011;50277;52.064;4.492;2023-05-20T01:08:05;7.88;;;4.20;;
64029;SDS011;50277;52.064;4.492;2023-05-20T01:10:30;6.22;;;3.40;;
64029;SDS011;50277;52.064;4.492;2023-05-20T01:12:58;8.63;;;3.70;;
64029;SDS011;50277;52.064;4.492;2023-05-20T01:15:26;9.63;;;4.30;;
64029;SDS011;50277;52.064;4.492;2023-05-20T01:17:54;8.70;;;4.20;;
64029;SDS011;50277;52.064;4.492;2023-05-20T01:20:25;9.68;;;4.32;;
64029;SDS011;50277;52.064;4.492;2023-05-20T01:22:53;10.38;;;4.72;;
64029;SDS011;50277;52.064;4.492;2023-05-20T01:25:19;7.72;;;3.90;;
64029;SDS011;50277;52.064;4.492;2023-05-20T01:27:45;11.85;;;4.40;;
64029;SDS011;50277;52.064;4.492;2023-05-20T01:30:12;9.13;;;4.22;;
64029;SDS011;50277;52.064;4.492;2023-05-20T01:32:43;10.27;;;4.70;;
64029;SDS011;50277;52.064;4.492;2023-05-20T01:35:12;7.53;;;3.97;;
64029;SDS011;50277;52.064;4.492;2023-05-20T01:37:39;7.97;;;4.40;;
64029;SDS011;50277;52.064;4.492;2023-05-20T01:40:06;9.45;;;4.45;;
64029;SDS011;50277;52.064;4.492;2023-05-20T01:42:32;13.75;;;5.00;;
64029;SDS011;50277;52.064;4.492;2023-05-20T01:44:58;7.55;;;4.55;;
64029;SDS011;50277;52.064;4.492;2023-05-20T01:47:24;7.97;;;4.35;;
64029;SDS011;50277;52.064;4.492;2023-05-20T01:49:49;12.20;;;4.68;;
64029;SDS011;50277;52.064;4.492;2023-05-20T01:52:18;9.40;;;4.72;;
64029;SDS011;50277;52.064;4.492;2023-05-20T01:54:47;8.13;;;3.97;;
64029;SDS011;50277;52.064;4.492;2023-05-20T01:57:18;9.97;;;4.43;;
64029;SDS011;50277;52.064;4.492;2023-05-20T01:59:44;9.43;;;4.55;;
64029;SDS011;50277;52.064;4.492;2023-05-20T02:02:10;5.63;;;3.97;;
64029;SDS011;50277;52.064;4.492;2023-05-20T02:04:35;8.40;;;4.22;;
64029;SDS011;50277;52.064;4.492;2023-05-20T02:07:01;8.52;;;4.32;;
64029;SDS011;50277;52.064;4.492;2023-05-20T02:09:26;12.95;;;4.40;;
64029;SDS011;50277;52.064;4.492;2023-05-20T02:11:52;9.88;;;4.43;;
64029;SDS011;50277;52.064;4.492;2023-05-20T02:14:17;9.70;;;4.47;;
64029;SDS011;50277;52.064;4.492;2023-05-20T02:16:43;8.65;;;4.70;;
64029;SDS011;50277;52.064;4.492;2023-05-20T02:19:08;7.88;;;4.68;;
64029;SDS011;50277;52.064;4.492;2023-05-20T02:21:36;13.55;;;5.53;;
64029;SDS011;50277;52.064;4.492;2023-05-20T02:24:06;14.65;;;5.32;;
64029;SDS011;50277;52.064;4.492;2023-05-20T02:26:32;12.77;;;4.28;;
64029;SDS011;50277;52.064;4.492;2023-05-20T02:28:58;7.28;;;4.28;;
64029;SDS011;50277;52.064;4.492;2023-05-20T02:31:23;6.20;;;4.00;;
64029;SDS011;50277;52.064;4.492;2023-05-20T02:33:49;10.63;;;5.22;;
64029;SDS011;50277;52.064;4.492;2023-05-20T02:36:14;9.65;;;4.72;;
64029;SDS011;50277;52.064;4.492;2023-05-20T02:38:41;11.52;;;4.82;;
64029;SDS011;50277;52.064;4.492;2023-05-20T02:41:06;13.43;;;4.55;;
64029;SDS011;50277;52.064;4.492;2023-05-20T02:43:32;9.80;;;4.68;;
64029;SDS011;50277;52.064;4.492;2023-05-20T02:45:57;11.90;;;4.95;;
64029;SDS011;50277;52.064;4.492;2023-05-20T02:48:23;9.40;;;4.68;;
64029;SDS011;50277;52.064;4.492;2023-05-20T02:50:48;11.65;;;5.32;;
64029;SDS011;50277;52.064;4.492;2023-05-20T02:53:13;10.82;;;4.50;;
64029;SDS011;50277;52.064;4.492;2023-05-20T02:55:39;7.45;;;4.10;;
64029;SDS011;50277;52.064;4.492;2023-05-20T02:58:04;12.38;;;4.88;;
64029;SDS011;50277;52.064;4.492;2023-05-20T03:00:29;8.48;;;4.00;;
64029;SDS011;50277;52.064;4.492;2023-05-20T03:02:55;14.60;;;4.57;;
64029;SDS011;50277;52.064;4.492;2023-05-20T03:05:21;10.15;;;4.07;;
64029;SDS011;50277;52.064;4.492;2023-05-20T03:07:47;9.38;;;4.20;;
64029;SDS011;50277;52.064;4.492;2023-05-20T03:10:12;9.25;;;4.60;;
64029;SDS011;50277;52.064;4.492;2023-05-20T03:12:38;11.02;;;4.50;;
64029;SDS011;50277;52.064;4.492;2023-05-20T03:15:04;9.10;;;4.38;;
64029;SDS011;50277;52.064;4.492;2023-05-20T03:17:30;10.65;;;4.40;;
64029;SDS011;50277;52.064;4.492;2023-05-20T03:19:55;14.68;;;5.22;;
64029;SDS011;50277;52.064;4.492;2023-05-20T03:22:20;14.90;;;4.20;;
64029;SDS011;50277;52.064;4.492;2023-05-20T03:24:46;7.93;;;4.32;;
64029;SDS011;50277;52.064;4.492;2023-05-20T03:27:12;10.02;;;4.53;;
64029;SDS011;50277;52.064;4.492;2023-05-20T03:29:37;11.82;;;4.80;;
64029;SDS011;50277;52.064;4.492;2023-05-20T03:32:03;10.85;;;4.80;;
64029;SDS011;50277;52.064;4.492;2023-05-20T03:34:28;13.57;;;4.90;;
64029;SDS011;50277;52.064;4.492;2023-05-20T03:36:54;19.67;;;5.75;;
64029;SDS011;50277;52.064;4.492;2023-05-20T03:39:19;12.32;;;5.47;;
64029;SDS011;50277;52.064;4.492;2023-05-20T03:41:45;12.48;;;5.60;;
64029;SDS011;50277;52.064;4.492;2023-05-20T03:44:10;11.85;;;5.45;;
64029;SDS011;50277;52.064;4.492;2023-05-20T03:46:35;10.98;;;4.63;;
64029;SDS011;50277;52.064;4.492;2023-05-20T03:49:01;13.75;;;5.20;;
64029;SDS011;50277;52.064;4.492;2023-05-20T03:51:26;11.10;;;5.07;;
64029;SDS011;50277;52.064;4.492;2023-05-20T03:53:52;8.30;;;5.20;;
64029;SDS011;50277;52.064;4.492;2023-05-20T03:56:18;10.05;;;5.13;;
64029;SDS011;50277;52.064;4.492;2023-05-20T03:58:43;10.73;;;5.63;;
64029;SDS011;50277;52.064;4.492;2023-05-20T04:01:09;10.00;;;4.55;;
64029;SDS011;50277;52.064;4.492;2023-05-20T04:03:37;11.30;;;5.60;;
64029;SDS011;50277;52.064;4.492;2023-05-20T04:06:02;11.73;;;5.38;;
64029;SDS011;50277;52.064;4.492;2023-05-20T04:08:28;12.32;;;5.40;;
64029;SDS011;50277;52.064;4.492;2023-05-20T04:10:56;11.95;;;5.75;;
64029;SDS011;50277;52.064;4.492;2023-05-20T04:13:23;13.73;;;6.28;;
64029;SDS011;50277;52.064;4.492;2023-05-20T04:15:49;12.45;;;5.97;;
64029;SDS011;50277;52.064;4.492;2023-05-20T04:18:15;12.18;;;5.65;;
64029;SDS011;50277;52.064;4.492;2023-05-20T04:20:40;9.45;;;6.07;;
64029;SDS011;50277;52.064;4.492;2023-05-20T04:23:06;12.02;;;5.68;;
64029;SDS011;50277;52.064;4.492;2023-05-20T04:25:31;12.95;;;6.05;;
64029;SDS011;50277;52.064;4.492;2023-05-20T04:27:58;11.75;;;6.63;;
64029;SDS011;50277;52.064;4.492;2023-05-20T04:30:23;12.73;;;5.65;;
64029;SDS011;50277;52.064;4.492;2023-05-20T04:32:49;11.95;;;5.60;;
64029;SDS011;50277;52.064;4.492;2023-05-20T04:35:14;13.02;;;5.43;;
64029;SDS011;50277;52.064;4.492;2023-05-20T04:37:40;11.30;;;5.90;;
64029;SDS011;50277;52.064;4.492;2023-05-20T04:40:16;10.20;;;5.22;;
64029;SDS011;50277;52.064;4.492;2023-05-20T04:42:43;11.65;;;5.60;;
64029;SDS011;50277;52.064;4.492;2023-05-20T04:45:08;12.45;;;5.65;;
64029;SDS011;50277;52.064;4.492;2023-05-20T04:47:34;8.32;;;5.70;;
64029;SDS011;50277;52.064;4.492;2023-05-20T04:50:02;12.88;;;5.75;;
64029;SDS011;50277;52.064;4.492;2023-05-20T04:52:34;10.63;;;5.93;;
64029;SDS011;50277;52.064;4.492;2023-05-20T04:55:00;14.60;;;5.95;;
64029;SDS011;50277;52.064;4.492;2023-05-20T04:57:25;10.02;;;5.38;;
64029;SDS011;50277;52.064;4.492;2023-05-20T04:59:51;10.80;;;4.95;;
64029;SDS011;50277;52.064;4.492;2023-05-20T05:02:16;9.27;;;5.70;;
64029;SDS011;50277;52.064;4.492;2023-05-20T05:04:42;8.65;;;5.20;;
64029;SDS011;50277;52.064;4.492;2023-05-20T05:07:07;8.35;;;5.18;;
64029;SDS011;50277;52.064;4.492;2023-05-20T05:09:32;14.20;;;5.40;;
64029;SDS011;50277;52.064;4.492;2023-05-20T05:11:58;8.38;;;5.68;;
64029;SDS011;50277;52.064;4.492;2023-05-20T05:14:23;9.32;;;5.30;;
64029;SDS011;50277;52.064;4.492;2023-05-20T05:16:48;11.80;;;6.63;;
64029;SDS011;50277;52.064;4.492;2023-05-20T05:19:14;9.05;;;5.18;;
64029;SDS011;50277;52.064;4.492;2023-05-20T05:21:39;12.50;;;6.05;;
64029;SDS011;50277;52.064;4.492;2023-05-20T05:24:05;12.07;;;5.50;;
64029;SDS011;50277;52.064;4.492;2023-05-20T05:26:30;10.32;;;5.13;;
64029;SDS011;50277;52.064;4.492;2023-05-20T05:28:56;13.10;;;5.75;;
64029;SDS011;50277;52.064;4.492;2023-05-20T05:31:21;9.25;;;5.47;;
64029;SDS011;50277;52.064;4.492;2023-05-20T05:33:46;14.82;;;5.80;;
64029;SDS011;50277;52.064;4.492;2023-05-20T05:36:12;15.20;;;5.97;;
64029;SDS011;50277;52.064;4.492;2023-05-20T05:38:37;14.02;;;5.95;;
64029;SDS011;50277;52.064;4.492;2023-05-20T05:41:02;9.20;;;5.80;;
64029;SDS011;50277;52.064;4.492;2023-05-20T05:43:27;10.32;;;5.63;;
64029;SDS011;50277;52.064;4.492;2023-05-20T05:45:53;8.52;;;5.50;;
64029;SDS011;50277;52.064;4.492;2023-05-20T05:48:18;13.27;;;5.95;;
64029;SDS011;50277;52.064;4.492;2023-05-20T05:50:45;10.07;;;5.70;;
64029;SDS011;50277;52.064;4.492;2023-05-20T05:53:10;11.07;;;5.50;;
64029;SDS011;50277;52.064;4.492;2023-05-20T05:55:36;9.85;;;5.65;;
64029;SDS011;50277;52.064;4.492;2023-05-20T05:58:01;13.73;;;6.28;;
64029;SDS011;50277;52.064;4.492;2023-05-20T06:00:26;9.75;;;5.97;;
64029;SDS011;50277;52.064;4.492;2023-05-20T06:02:52;11.52;;;5.60;;
64029;SDS011;50277;52.064;4.492;2023-05-20T06:05:17;10.80;;;6.18;;
64029;SDS011;50277;52.064;4.492;2023-05-20T06:07:43;12.95;;;6.68;;
64029;SDS011;50277;52.064;4.492;2023-05-20T06:10:08;9.90;;;5.88;;
64029;SDS011;50277;52.064;4.492;2023-05-20T06:12:34;8.75;;;5.40;;
64029;SDS011;50277;52.064;4.492;2023-05-20T06:14:59;11.45;;;5.30;;
64029;SDS011;50277;52.064;4.492;2023-05-20T06:17:24;9.20;;;6.00;;
64029;SDS011;50277;52.064;4.492;2023-05-20T06:19:50;17.67;;;5.63;;
64029;SDS011;50277;52.064;4.492;2023-05-20T06:22:15;7.10;;;4.93;;
64029;SDS011;50277;52.064;4.492;2023-05-20T06:24:40;9.05;;;4.82;;
64029;SDS011;50277;52.064;4.492;2023-05-20T06:27:06;8.70;;;4.95;;
64029;SDS011;50277;52.064;4.492;2023-05-20T06:29:31;9.82;;;4.57;;
64029;SDS011;50277;52.064;4.492;2023-05-20T06:31:56;9.13;;;4.00;;
64029;SDS011;50277;52.064;4.492;2023-05-20T06:34:22;10.80;;;4.60;;
64029;SDS011;50277;52.064;4.492;2023-05-20T06:36:47;8.27;;;4.28;;
64029;SDS011;50277;52.064;4.492;2023-05-20T06:39:12;10.13;;;3.17;;
64029;SDS011;50277;52.064;4.492;2023-05-20T06:41:38;9.48;;;3.60;;
64029;SDS011;50277;52.064;4.492;2023-05-20T06:44:04;6.32;;;3.75;;
64029;SDS011;50277;52.064;4.492;2023-05-20T06:46:30;6.75;;;3.53;;
64029;SDS011;50277;52.064;4.492;2023-05-20T06:48:55;6.22;;;3.35;;
64029;SDS011;50277;52.064;4.492;2023-05-20T06:51:21;8.32;;;3.20;;
64029;SDS011;50277;52.064;4.492;2023-05-20T06:53:46;6.50;;;3.65;;
64029;SDS011;50277;52.064;4.492;2023-05-20T06:56:11;6.47;;;2.88;;
64029;SDS011;50277;52.064;4.492;2023-05-20T06:58:37;4.45;;;2.80;;
64029;SDS011;50277;52.064;4.492;2023-05-20T07:01:02;3.42;;;2.92;;
64029;SDS011;50277;52.064;4.492;2023-05-20T07:03:28;6.40;;;3.03;;
64029;SDS011;50277;52.064;4.492;2023-05-20T07:05:53;4.68;;;3.03;;
64029;SDS011;50277;52.064;4.492;2023-05-20T07:08:19;6.00;;;3.08;;
64029;SDS011;50277;52.064;4.492;2023-05-20T07:10:44;8.15;;;3.60;;
64029;SDS011;50277;52.064;4.492;2023-05-20T07:13:10;6.60;;;3.10;;
64029;SDS011;50277;52.064;4.492;2023-05-20T07:15:37;6.45;;;3.45;;
64029;SDS011;50277;52.064;4.492;2023-05-20T07:18:02;5.18;;;3.08;;
64029;SDS011;50277;52.064;4.492;2023-05-20T07:20:27;9.27;;;3.20;;
64029;SDS011;50277;52.064;4.492;2023-05-20T07:22:53;4.43;;;2.95;;
64029;SDS011;50277;52.064;4.492;2023-05-20T07:25:18;5.72;;;2.75;;
64029;SDS011;50277;52.064;4.492;2023-05-20T07:27:43;7.05;;;3.08;;
64029;SDS011;50277;52.064;4.492;2023-05-20T07:30:09;4.63;;;3.08;;
64029;SDS011;50277;52.064;4.492;2023-05-20T07:32:34;6.25;;;3.20;;
64029;SDS011;50277;52.064;4.492;2023-05-20T07:35:00;7.43;;;3.08;;
64029;SDS011;50277;52.064;4.492;2023-05-20T07:37:25;9.02;;;3.58;;
64029;SDS011;50277;52.064;4.492;2023-05-20T07:39:50;12.07;;;3.75;;
64029;SDS011;50277;52.064;4.492;2023-05-20T07:42:16;7.32;;;3.13;;
64029;SDS011;50277;52.064;4.492;2023-05-20T07:44:41;5.25;;;3.40;;
64029;SDS011;50277;52.064;4.492;2023-05-20T07:47:07;7.97;;;2.90;;
64029;SDS011;50277;52.064;4.492;2023-05-20T07:49:32;4.70;;;3.13;;
64029;SDS011;50277;52.064;4.492;2023-05-20T07:51:58;6.78;;;3.38;;
64029;SDS011;50277;52.064;4.492;2023-05-20T07:54:23;4.30;;;2.50;;
64029;SDS011;50277;52.064;4.492;2023-05-20T07:56:48;6.30;;;3.17;;
64029;SDS011;50277;52.064;4.492;2023-05-20T07:59:14;3.97;;;2.72;;
64029;SDS011;50277;52.064;4.492;2023-05-20T08:01:40;5.68;;;3.05;;
64029;SDS011;50277;52.064;4.492;2023-05-20T08:04:06;6.80;;;2.97;;
64029;SDS011;50277;52.064;4.492;2023-05-20T08:06:31;4.15;;;2.33;;
64029;SDS011;50277;52.064;4.492;2023-05-20T08:08:57;5.15;;;3.08;;
64029;SDS011;50277;52.064;4.492;2023-05-20T08:11:22;4.43;;;2.53;;
64029;SDS011;50277;52.064;4.492;2023-05-20T08:13:47;6.05;;;3.30;;
64029;SDS011;50277;52.064;4.492;2023-05-20T08:16:13;6.32;;;3.15;;
64029;SDS011;50277;52.064;4.492;2023-05-20T08:18:39;9.70;;;3.30;;
64029;SDS011;50277;52.064;4.492;2023-05-20T08:21:04;6.18;;;2.70;;
64029;SDS011;50277;52.064;4.492;2023-05-20T08:23:33;6.18;;;3.25;;
64029;SDS011;50277;52.064;4.492;2023-05-20T08:25:59;2.97;;;2.70;;
64029;SDS011;50277;52.064;4.492;2023-05-20T08:28:28;5.18;;;2.80;;
64029;SDS011;50277;52.064;4.492;2023-05-20T08:30:53;4.60;;;2.33;;
64029;SDS011;50277;52.064;4.492;2023-05-20T08:33:19;6.30;;;2.92;;
64029;SDS011;50277;52.064;4.492;2023-05-20T08:35:46;6.18;;;3.25;;
64029;SDS011;50277;52.064;4.492;2023-05-20T08:38:12;3.47;;;2.50;;
64029;SDS011;50277;52.064;4.492;2023-05-20T08:40:37;5.82;;;3.00;;
64029;SDS011;50277;52.064;4.492;2023-05-20T08:43:03;4.25;;;2.10;;
64029;SDS011;50277;52.064;4.492;2023-05-20T08:45:30;4.13;;;2.92;;
64029;SDS011;50277;52.064;4.492;2023-05-20T08:47:56;5.25;;;2.53;;
64029;SDS011;50277;52.064;4.492;2023-05-20T08:50:23;3.15;;;2.53;;
64029;SDS011;50277;52.064;4.492;2023-05-20T08:52:48;3.85;;;2.50;;
64029;SDS011;50277;52.064;4.492;2023-05-20T08:55:23;5.68;;;2.70;;
64029;SDS011;50277;52.064;4.492;2023-05-20T08:57:51;4.95;;;2.60;;
64029;SDS011;50277;52.064;4.492;2023-05-20T09:00:18;6.53;;;2.40;;
64029;SDS011;50277;52.064;4.492;2023-05-20T09:02:53;5.82;;;2.97;;
64029;SDS011;50277;52.064;4.492;2023-05-20T09:05:19;4.43;;;2.53;;
64029;SDS011;50277;52.064;4.492;2023-05-20T09:07:45;6.28;;;2.40;;
64029;SDS011;50277;52.064;4.492;2023-05-20T09:10:11;3.72;;;2.47;;
64029;SDS011;50277;52.064;4.492;2023-05-20T09:12:36;4.65;;;2.50;;
64029;SDS011;50277;52.064;4.492;2023-05-20T09:15:03;3.67;;;2.95;;
64029;SDS011;50277;52.064;4.492;2023-05-20T09:17:29;8.02;;;2.72;;
64029;SDS011;50277;52.064;4.492;2023-05-20T09:19:54;3.13;;;2.28;;
64029;SDS011;50277;52.064;4.492;2023-05-20T09:24:52;9.80;;;2.63;;
64029;SDS011;50277;52.064;4.492;2023-05-20T09:27:20;5.10;;;2.58;;
64029;SDS011;50277;52.064;4.492;2023-05-20T09:29:47;4.95;;;2.42;;
64029;SDS011;50277;52.064;4.492;2023-05-20T09:32:13;3.38;;;2.55;;
64029;SDS011;50277;52.064;4.492;2023-05-20T09:34:39;2.40;;;2.20;;
64029;SDS011;50277;52.064;4.492;2023-05-20T09:37:06;5.88;;;2.22;;
64029;SDS011;50277;52.064;4.492;2023-05-20T09:39:32;3.42;;;2.17;;
64029;SDS011;50277;52.064;4.492;2023-05-20T09:42:02;2.67;;;1.95;;
64029;SDS011;50277;52.064;4.492;2023-05-20T09:44:31;2.35;;;2.13;;
64029;SDS011;50277;52.064;4.492;2023-05-20T09:46:57;5.05;;;2.33;;
64029;SDS011;50277;52.064;4.492;2023-05-20T09:49:23;3.90;;;2.22;;
64029;SDS011;50277;52.064;4.492;2023-05-20T09:51:49;6.32;;;2.47;;
64029;SDS011;50277;52.064;4.492;2023-05-20T09:54:16;4.43;;;2.47;;
64029;SDS011;50277;52.064;4.492;2023-05-20T09:56:42;3.13;;;2.38;;
64029;SDS011;50277;52.064;4.492;2023-05-20T09:59:08;2.28;;;2.08;;
64029;SDS011;50277;52.064;4.492;2023-05-20T10:01:34;8.00;;;2.20;;
64029;SDS011;50277;52.064;4.492;2023-05-20T10:04:00;4.97;;;2.10;;
64029;SDS011;50277;52.064;4.492;2023-05-20T10:09:22;5.65;;;2.20;;
64029;SDS011;50277;52.064;4.492;2023-05-20T10:12:13;5.13;;;2.00;;
64029;SDS011;50277;52.064;4.492;2023-05-20T10:17:50;2.30;;;2.05;;
64029;SDS011;50277;52.064;4.492;2023-05-20T10:20:20;2.65;;;2.15;;
64029;SDS011;50277;52.064;4.492;2023-05-20T10:22:53;5.95;;;2.13;;
64029;SDS011;50277;52.064;4.492;2023-05-20T10:25:25;2.35;;;2.03;;
64029;SDS011;50277;52.064;4.492;2023-05-20T10:27:51;2.50;;;2.30;;
64029;SDS011;50277;52.064;4.492;2023-05-20T10:30:28;3.42;;;2.03;;
64029;SDS011;50277;52.064;4.492;2023-05-20T10:32:54;3.35;;;2.40;;
64029;SDS011;50277;52.064;4.492;2023-05-20T10:35:22;2.58;;;2.00;;
64029;SDS011;50277;52.064;4.492;2023-05-20T10:37:52;2.30;;;2.10;;
64029;SDS011;50277;52.064;4.492;2023-05-20T10:40:19;4.78;;;2.22;;
64029;SDS011;50277;52.064;4.492;2023-05-20T10:42:45;2.63;;;2.35;;
64029;SDS011;50277;52.064;4.492;2023-05-20T10:45:23;3.03;;;2.25;;
64029;SDS011;50277;52.064;4.492;2023-05-20T10:47:54;3.55;;;1.98;;
64029;SDS011;50277;52.064;4.492;2023-05-20T10:50:32;6.70;;;2.17;;
64029;SDS011;50277;52.064;4.492;2023-05-20T10:53:05;3.65;;;2.47;;
64029;SDS011;50277;52.064;4.492;2023-05-20T10:55:37;4.47;;;1.95;;
64029;SDS011;50277;52.064;4.492;2023-05-20T10:58:04;5.28;;;2.33;;
64029;SDS011;50277;52.064;4.492;2023-05-20T11:00:30;3.63;;;1.98;;
64029;SDS011;50277;52.064;4.492;2023-05-20T11:02:56;8.27;;;2.13;;
64029;SDS011;50277;52.064;4.492;2023-05-20T11:05:21;3.05;;;2.33;;
64029;SDS011;50277;52.064;4.492;2023-05-20T11:07:47;6.13;;;2.58;;
64029;SDS011;50277;52.064;4.492;2023-05-20T11:10:12;8.60;;;2.15;;
64029;SDS011;50277;52.064;4.492;2023-05-20T11:12:37;4.03;;;2.22;;
64029;SDS011;50277;52.064;4.492;2023-05-20T11:15:03;2.60;;;1.75;;
64029;SDS011;50277;52.064;4.492;2023-05-20T11:17:29;2.92;;;2.03;;
64029;SDS011;50277;52.064;4.492;2023-05-20T11:19:54;6.57;;;2.55;;
64029;SDS011;50277;52.064;4.492;2023-05-20T11:22:20;3.13;;;2.03;;
64029;SDS011;50277;52.064;4.492;2023-05-20T11:24:45;2.53;;;2.30;;
64029;SDS011;50277;52.064;4.492;2023-05-20T11:27:11;3.35;;;2.10;;
64029;SDS011;50277;52.064;4.492;2023-05-20T11:29:36;2.95;;;2.20;;
64029;SDS011;50277;52.064;4.492;2023-05-20T11:32:02;4.50;;;2.33;;
64029;SDS011;50277;52.064;4.492;2023-05-20T11:34:34;2.42;;;2.22;;
64029;SDS011;50277;52.064;4.492;2023-05-20T11:37:00;3.58;;;2.40;;
64029;SDS011;50277;52.064;4.492;2023-05-20T11:39:28;2.67;;;1.98;;
64029;SDS011;50277;52.064;4.492;2023-05-20T11:41:54;4.15;;;2.30;;
64029;SDS011;50277;52.064;4.492;2023-05-20T11:44:19;2.65;;;2.33;;
64029;SDS011;50277;52.064;4.492;2023-05-20T11:46:46;3.17;;;2.30;;
64029;SDS011;50277;52.064;4.492;2023-05-20T11:49:12;5.40;;;2.53;;
64029;SDS011;50277;52.064;4.492;2023-05-20T11:51:38;3.80;;;2.58;;
64029;SDS011;50277;52.064;4.492;2023-05-20T11:54:05;4.63;;;2.30;;
64029;SDS011;50277;52.064;4.492;2023-05-20T11:56:34;3.47;;;2.20;;
64029;SDS011;50277;52.064;4.492;2023-05-20T11:59:01;4.07;;;2.38;;
64029;SDS011;50277;52.064;4.492;2023-05-20T12:01:29;3.90;;;2.30;;
64029;SDS011;50277;52.064;4.492;2023-05-20T12:06:20;4.32;;;2.33;;
64029;SDS011;50277;52.064;4.492;2023-05-20T12:08:46;4.00;;;2.45;;
64029;SDS011;50277;52.064;4.492;2023-05-20T12:11:11;2.10;;;1.90;;
64029;SDS011;50277;52.064;4.492;2023-05-20T12:13:37;3.30;;;2.10;;
64029;SDS011;50277;52.064;4.492;2023-05-20T12:16:02;4.53;;;2.20;;
64029;SDS011;50277;52.064;4.492;2023-05-20T12:18:30;7.80;;;2.58;;
64029;SDS011;50277;52.064;4.492;2023-05-20T12:20:57;5.70;;;2.70;;
64029;SDS011;50277;52.064;4.492;2023-05-20T12:23:22;7.82;;;2.63;;
64029;SDS011;50277;52.064;4.492;2023-05-20T12:25:48;4.70;;;2.50;;
64029;SDS011;50277;52.064;4.492;2023-05-20T12:28:14;3.25;;;1.98;;
64029;SDS011;50277;52.064;4.492;2023-05-20T12:30:40;5.68;;;2.67;;
64029;SDS011;50277;52.064;4.492;2023-05-20T12:33:06;3.22;;;2.42;;
64029;SDS011;50277;52.064;4.492;2023-05-20T12:35:35;7.18;;;2.50;;
64029;SDS011;50277;52.064;4.492;2023-05-20T12:38:04;3.70;;;2.40;;
64029;SDS011;50277;52.064;4.492;2023-05-20T12:40:30;2.50;;;1.85;;
64029;SDS011;50277;52.064;4.492;2023-05-20T12:42:56;2.65;;;2.40;;
64029;SDS011;50277;52.064;4.492;2023-05-20T12:45:22;3.85;;;2.45;;
64029;SDS011;50277;52.064;4.492;2023-05-20T12:47:47;5.97;;;2.42;;
64029;SDS011;50277;52.064;4.492;2023-05-20T12:50:12;7.40;;;2.80;;
64029;SDS011;50277;52.064;4.492;2023-05-20T12:52:38;10.23;;;2.65;;
64029;SDS011;50277;52.064;4.492;2023-05-20T12:55:03;3.67;;;2.22;;
64029;SDS011;50277;52.064;4.492;2023-05-20T12:57:30;6.90;;;2.40;;
64029;SDS011;50277;52.064;4.492;2023-05-20T12:59:56;5.20;;;2.30;;
64029;SDS011;50277;52.064;4.492;2023-05-20T13:02:21;2.50;;;2.30;;
64029;SDS011;50277;52.064;4.492;2023-05-20T13:04:47;2.45;;;1.90;;
64029;SDS011;50277;52.064;4.492;2023-05-20T13:07:12;3.58;;;2.17;;
64029;SDS011;50277;52.064;4.492;2023-05-20T13:09:37;2.53;;;2.33;;
64029;SDS011;50277;52.064;4.492;2023-05-20T13:12:03;9.38;;;2.50;;
64029;SDS011;50277;52.064;4.492;2023-05-20T13:14:28;2.35;;;2.05;;
64029;SDS011;50277;52.064;4.492;2023-05-20T13:16:53;2.03;;;1.92;;
64029;SDS011;50277;52.064;4.492;2023-05-20T13:19:20;3.95;;;2.38;;
64029;SDS011;50277;52.064;4.492;2023-05-20T13:21:46;5.43;;;2.35;;
64029;SDS011;50277;52.064;4.492;2023-05-20T13:24:11;5.38;;;2.75;;
64029;SDS011;50277;52.064;4.492;2023-05-20T13:26:37;3.90;;;2.38;;
64029;SDS011;50277;52.064;4.492;2023-05-20T13:29:03;2.78;;;2.33;;
64029;SDS011;50277;52.064;4.492;2023-05-20T13:31:29;4.38;;;2.30;;
64029;SDS011;50277;52.064;4.492;2023-05-20T13:33:55;3.22;;;1.70;;
64029;SDS011;50277;52.064;4.492;2023-05-20T13:36:23;4.55;;;2.28;;
64029;SDS011;50277;52.064;4.492;2023-05-20T13:38:48;3.58;;;2.20;;
64029;SDS011;50277;52.064;4.492;2023-05-20T13:41:13;2.13;;;1.90;;
64029;SDS011;50277;52.064;4.492;2023-05-20T13:43:39;3.03;;;2.30;;
64029;SDS011;50277;52.064;4.492;2023-05-20T13:46:06;4.70;;;2.30;;
64029;SDS011;50277;52.064;4.492;2023-05-20T13:48:31;2.90;;;2.20;;
64029;SDS011;50277;52.064;4.492;2023-05-20T13:50:57;5.15;;;2.28;;
64029;SDS011;50277;52.064;4.492;2023-05-20T13:53:22;3.25;;;2.60;;
64029;SDS011;50277;52.064;4.492;2023-05-20T13:55:48;5.32;;;2.65;;
64029;SDS011;50277;52.064;4.492;2023-05-20T13:58:13;3.58;;;2.25;;
64029;SDS011;50277;52.064;4.492;2023-05-20T14:00:39;2.67;;;2.30;;
64029;SDS011;50277;52.064;4.492;2023-05-20T14:03:04;2.97;;;1.70;;
64029;SDS011;50277;52.064;4.492;2023-05-20T14:05:32;7.55;;;2.60;;
64029;SDS011;50277;52.064;4.492;2023-05-20T14:07:58;2.78;;;2.20;;
64029;SDS011;50277;52.064;4.492;2023-05-20T14:10:24;6.15;;;2.10;;
64029;SDS011;50277;52.064;4.492;2023-05-20T14:12:50;2.75;;;2.03;;
64029;SDS011;50277;52.064;4.492;2023-05-20T14:15:16;4.13;;;2.47;;
64029;SDS011;50277;52.064;4.492;2023-05-20T14:17:41;3.63;;;2.50;;
64029;SDS011;50277;52.064;4.492;2023-05-20T14:20:07;2.90;;;1.95;;
64029;SDS011;50277;52.064;4.492;2023-05-20T14:22:32;8.07;;;2.25;;
64029;SDS011;50277;52.064;4.492;2023-05-20T14:24:58;5.15;;;2.53;;
64029;SDS011;50277;52.064;4.492;2023-05-20T14:27:23;3.97;;;2.13;;
64029;SDS011;50277;52.064;4.492;2023-05-20T14:29:48;3.17;;;2.22;;
64029;SDS011;50277;52.064;4.492;2023-05-20T14:32:14;5.57;;;2.22;;
64029;SDS011;50277;52.064;4.492;2023-05-20T14:34:39;6.80;;;2.50;;
64029;SDS011;50277;52.064;4.492;2023-05-20T14:37:05;3.80;;;2.03;;
64029;SDS011;50277;52.064;4.492;2023-05-20T14:39:33;5.60;;;2.20;;
64029;SDS011;50277;52.064;4.492;2023-05-20T14:44:27;4.88;;;2.17;;
64029;SDS011;50277;52.064;4.492;2023-05-20T14:46:53;3.65;;;2.10;;
64029;SDS011;50277;52.064;4.492;2023-05-20T14:49:18;3.58;;;2.22;;